Timeline UpdatesTrip UpdatesNews PostsPvt PostsTravel TipsAdmin PostsConv PostsFollowed PostsChat RequestsBlog PostsPNR Posts

Disclaimer
Search
 
 
Thu Sep 18, 2014 17:12:38 ISTHomeTrainsΣChainsAtlasPNRForumGalleryNewsFAQTripsMembersLoginFeedback
No Recent News for this Train
Other Trains in the News **new
Latest...
⇐ Return Journey: Train# 59812

59811/Haldighati Passenger

Time-Table HAS CHANGED.
Sep 02 (12:23AM)
Change Departure Station:
Change Arrival Station:
Post a Train Travel TipPost a Train Travel Tip **new
Post a Comment/Question/Picture/VideoPost a Comment/Question/Picture/Video
Pantry/Catering
✕ NO Pantry Car
✓ Catering Avbl
Loco/Rake Reversals
KOTA/Kota Junction (5);
RSA - Rake Sharing
Comes to AF as 59811, departs as 59814
Rake/Coach Composition
Loco-SLR+Handicapped-GS1-GS2-GS3-GS4-GS5-S1-S2-S3-GS6-GS7-GS8-SLR; Total Length-13 Coaches
Loco
Rtm-Kota:- WDM 3A RTM shed Kota-AF:- WAM 4E BRC shed Re# 549005-21
News    PNR    Forum    Time-Table    Availability    Fare Chart    Map    Arr/Dep History    Trips    Gallery    ΣChains    X/O    Timeline    
Travel Time: 18h 2m    51 halts    Distance: 601 km    Avg Speed: 33 km/hr
Type: Passenger
Zone: WR/Western
Departs @ 08:30
Platform# ???
SMTWTFS
Ratlam Junction/RTM 
Arrives @ 02:32 +1 night
Platform# ???
SMTWTFS
Dumariya/DY 

51 halts. 75 intermediate Stations between Ratlam Junction and Dumariya

Show ALL intermediate Stations  Show Old Time-Table

#CodeStation NameX/OArrivesAvgDepartsAvgHaltPFDay#KmSpeedElevZoneAddress
1RTMRatlam Junction (7)»  -09:55 08:30---10.060495mWRRatlam, Madhya Pradesh
2NLINamli  10:10 08:43-10:11 08:45-1 2m--112.954494mWRNamli, Madhya Pradesh
3BRLABrayla ChaurasiX  10:22 08:58-10:23 09:00-1 2m--124.528486mWRBadayla Chorasi Rd, Madhya Pradesh
4JAOJaora (2)  10:32 09:18-10:33 09:20-1 2m1132.960476mWRJaora, Madhya Pradesh
5DODDhodhar  10:47 09:37-10:48 09:39-1 2m--149.870478mWRDhodar, Madhya Pradesh
6KCNRKachnara Road new halt!!  09:47-09:49-2m--159.253498mWRSarsod, Madhya Pradesh
7DLDDalauda  11:10 10:01-11:11 10:03-1 2m--169.759469mWRDalauda, Madhya Pradesh
8MDSMandsor (2)  11:23 10:18-11:24 10:20-1 2m--184.352436mWRMandsaur, Madhya Pradesh
9PIPPiplia (1)  11:40 10:38-11:41 10:40-1 2m11100.048472mWRPanth Pipalia, Madhya Pradesh
10MLGMalhargarh  11:51 10:50-11:52 10:52-1 2m--1108.052466mWRMalhargarh, Madhya Pradesh
11HKLHarkia Khal  12:22 11:06-12:23 11:08-1 2m--1120.229455mWRState Highway 31, Rajasthan
12NMHNimach (3)  12:45 11:35-12:55 11:40-10 5m--1133.358490mWRMDR 11A, Madhya Pradesh
13BIWKBisalwas KalanX  13:04 11:50-13:05 11:52-1 2m--1143.117477mWRMDR 11A, Rajasthan
14JWOJawad RoadX  13:15 12:16-13:16 12:18-1 2m--1149.831462mWRNayagaon, Rajasthan
15NBHNimbahera (1)  13:26 12:38-13:27 12:40-1 2m11160.038441mWRNimbahera, Rajasthan
16GRFGambhiri RoadO  13:36 12:53-13:37 12:55-1 2m11168.429441mWRNational Highway 79, Rajasthan
17SMPShambhupura  13:47 13:14-13:48 13:16-1 2m--1177.621423mWRShambhupura, Rajasthan
18CORChittaurgarh Junction (5)X  14:00 13:50-14:10-10 20m--1189.315403mWRChittorgarh, Rajasthan
19CNAChanderiya (2)  14:38-14:40-2m--1196.252408mWRChittorgarh, Rajasthan
20PSLIParsoli  15:18-15:20-2m--1229.353380mWCRNH 76, Rajasthan
21MLGHMandalgarh  15:48-15:50-2m--1253.948382mWCRMandalgarh, Rajasthan
22SMPAShampura  16:10-16:12-2m--1269.829395mWCRMandalgarh, Rajasthan
23URMLUpramal  16:22-16:23-1m--1274.7107390mWCRMDR 41, Rajasthan
24JNRIJalindri  16:31-16:32-1m--1289.055 WCR
25SNARSrinagar RajasthanX  16:58-17:00-2m--1313.021259mWCRShreenagar RJ, Rajasthan
26BUDIBundiO  17:48 17:30-17:50 17:35-2 5m--1323.314256mWCRBundi, Rajasthan
27KOTAKota Junction (5)↵¶20:20-21:00-40m11361.041256mWCRKota, Rajasthan
28GQLGurla  21:08-21:10-2m--1366.460251mWCRSH 33, Rajasthan
29KPTNKeshorai PatanX  21:19 21:18-21:20-1 2m--1374.482243mWCRSH 33, Rajasthan
30AREArnetha  21:29 21:28-21:30-1 2m--1385.369239mWCRShreepura, Rajasthan
31KPZKaprenX  21:39 21:38-21:40-1 2m--1394.575234mWCRKota - Lalsot Mega Highway, Rajasthan
32GKBGhataka VaranaXO  21:49 21:48-21:50-1 2m--1404.570232mWCRSH 33, Rajasthan
33LBNLaban (2)X  21:59 21:58-22:00-1 2m--1413.957225mWCRBundi, Rajasthan
34LKELakheri (3)X  22:09 22:08-22:10-1 2m--1421.466228mWCRBundi, Rajasthan
35IDGIndargarh Sumerganj Mandi (2)X  22:20-22:22-2m--1432.478247mWCRIndargarh, Rajasthan
36AMLIAmliX  22:32-22:34-2m--1445.565233mWCRSawai Madhopur, Rajasthan
37RWJRawania DungarXO  22:41-22:43-2m--1453.156266mWCRSawai Madhopur, Rajasthan
38KTAKushtala  22:52-22:54-2m--1461.627283mWCRNH 116, Rajasthan
39SWMSawai Madhopur Junction (4)  23:10-23:15-5m--1468.777266mWCRSawai Madhopur, Rajasthan
40RNTRanthambhore  23:23-23:25-2m--1478.969248mWCRMDR 111, Rajasthan
41MXLMokholiX  23:30 23:33-23:35-5 2m--1488.165242mWCRMDR 111, Rajasthan
42MLZMalarna  23:45-23:47-2m--1498.929236mWCRSawai Madhopur, Rajasthan
43NMDNomodaX  00:03 00:02-00:04-1 2m--2506.064238mWCRMDR 111, Rajasthan
44NNWNarayanpur Tatwara (2)  00:14 00:13-00:15-1 2m--2515.780256mWCRSawai Madhopur, Rajasthan
45LRULalpur UmriO  00:24 00:23-00:25-1 2m--2526.313276mWCRSH 1, Rajasthan
46GGCGangapur City (3)XO  00:55-01:05-10m--2532.669270mWCRGangapur, Rajasthan
47COOChhoti Odai  01:17 01:16-01:18-1 2m--2545.347257mWCRSH 25, Rajasthan
48PDZPiliodaX  01:28-01:30-2m--2553.246247mWCRSH 1, Rajasthan
49KNDPKhandip new halt!!  01:38-01:40-2m--2559.355245mWCRState Highway 1, Rajasthan
50SMBJShri Mahabirji (3)X  01:48-01:50-2m--2566.734240mWCRKarauli, Rajasthan
51HANHindaun City (2)  02:08-02:10-2m--2576.972230mWCRKarauli, Rajasthan
52FSPFateh Singhpura  02:21-02:23-2m--2590.171223mWCRState Highway 1, Rajasthan
53DYDumariya (2)•XO  02:32-02:34-2m--2600.712211mWCRState Highway 1, Rajasthan
54BXNBayana Junction (3)  03:20-03:45-25m--2609.754198mWCRBayana, Rajasthan
55BAMABirambad (1)  03:51 03:50-03:52-1 2m12614.256196mNCRDumariya, Rajasthan
56BRBandh Bareta (1)  03:58 03:57-03:59-1 2m12618.957203mNCRDumariya, Rajasthan
57NGLTNaglatula (1)  04:06 04:05-04:07-1 2m12624.663209mNCRBayana, Rajasthan
58BIQBansi Paharpur (1)  04:14 04:13-04:15-1 2m12630.958216mNCRRupbas, Rajasthan
59DXKDhana Kherli (1)  04:22 04:21-04:23-1 2m12636.762192mNCRFatehpur Sikri, Uttar Pradesh
60RBSRupbas (2)  04:31 04:30-04:32-1 2m--2643.946178mNCRJAGNER ROAD, Rajasthan
61AEDAulenda (1)  04:40 04:39-04:41-1 2m12649.266179mNCRKiraoli, Uttar Pradesh
62FTSFatehpur Sikri (2)  04:50 04:49-04:51-1 2m--2658.144176mNCRAgra, Uttar Pradesh
63SNPRSingarpur (1)X  04:59 04:58-05:00-1 2m12663.273168mNCRRupbas, Rajasthan
64KLBKiraoli (1)  05:07 05:06-05:08-1 2m12670.561174mNCRKiraoli, Uttar Pradesh
65MIQMirhakur (1)  05:17 05:16-05:18-1 2m12678.645172mNCRIdgah Agra, Uttar Pradesh
66PTLIPathauli (1)  05:27 05:26-05:28-1 2m12684.557174mNCRAgra Fort, Uttar Pradesh
67IDHIdgah Agra Junction (3)  05:36-05:38-2m--2692.16168mNCRAgra, Uttar Pradesh
68AFAgra Fort (3)  06:00--22694.2-170mNCRRakabganj, Uttar Pradesh
Scroll to Top
Scroll to Bottom